Time,TemperatureF,DewpointF,PressureIn,WindDirection,WindDirectionDegrees,WindSpeedMPH,WindSpeedGustMPH,Humidity,HourlyPrecipIn,Conditions,Clouds,dailyrainin,SolarRadiationWatts/m^2,SoftwareType,DateUTC
2013-01-11 00:03:00,45.1,14.0,29.52,SSW,196,7.0,19.0,29,0.00,,,0.00,0,weatherlink.com 1.10,2013-01-11 07:03:00,
2013-01-11 00:18:00,44.9,17.0,29.51,South,189,8.0,23.0,32,0.00,,,0.00,0,weatherlink.com 1.10,2013-01-11 07:18:00,
2013-01-11 00:33:00,44.3,15.0,29.50,South,177,7.0,12.0,31,0.00,,,0.00,0,weatherlink.com 1.10,2013-01-11 07:33:00,
2013-01-11 00:48:00,44.2,15.0,29.50,SSW,202,7.0,15.0,31,0.00,,,0.00,0,weatherlink.com 1.10,2013-01-11 07:48:00,
2013-01-11 01:03:00,44.3,15.0,29.49,SSW,196,10.0,15.0,30,0.00,,,0.00,0,weatherlink.com 1.10,2013-01-11 08:03:00,
2013-01-11 01:18:00,44.2,16.0,29.48,SW,216,12.0,17.0,32,0.00,,,0.00,0,weatherlink.com 1.10,2013-01-11 08:18:00,
2013-01-11 01:33:00,44.2,16.0,29.47,South,185,5.0,16.0,32,0.00,,,0.00,0,weatherlink.com 1.10,2013-01-11 08:33:00,
2013-01-11 01:48:00,43.3,14.0,29.47,South,191,9.0,15.0,31,0.00,,,0.00,0,weatherlink.com 1.10,2013-01-11 08:48:00,
2013-01-11 02:03:00,42.9,15.0,29.47,SSW,194,5.0,16.0,32,0.00,,,0.00,0,weatherlink.com 1.10,2013-01-11 09:03:00,
2013-01-11 02:18:00,42.0,14.0,29.46,SSW,195,7.0,11.0,32,0.00,,,0.00,0,weatherlink.com 1.10,2013-01-11 09:18:00,
2013-01-11 02:33:00,41.2,14.0,29.46,SSW,211,7.0,12.0,33,0.00,,,0.00,0,weatherlink.com 1.10,2013-01-11 09:33:00,
2013-01-11 02:48:00,40.4,14.0,29.45,SSW,197,7.0,9.0,34,0.00,,,0.00,0,weatherlink.com 1.10,2013-01-11 09:48:00,
2013-01-11 03:03:00,40.5,14.0,29.44,SSW,197,7.0,8.0,34,0.00,,,0.00,0,weatherlink.com 1.10,2013-01-11 10:03:00,
2013-01-11 03:18:00,40.3,15.0,29.42,SSW,196,5.0,7.0,36,0.00,,,0.00,0,weatherlink.com 1.10,2013-01-11 10:18:00,
2013-01-11 03:33:00,39.8,14.0,29.41,South,189,4.0,9.0,35,0.00,,,0.00,0,weatherlink.com 1.10,2013-01-11 10:33:00,
2013-01-11 03:48:00,40.1,14.0,29.40,SSW,196,7.0,8.0,35,0.00,,,0.00,0,weatherlink.com 1.10,2013-01-11 10:48:00,
2013-01-11 04:03:00,39.3,14.0,29.39,SSW,201,4.0,8.0,36,0.00,,,0.00,0,weatherlink.com 1.10,2013-01-11 11:03:00,
2013-01-11 04:18:00,39.0,15.0,29.38,SSW,194,5.0,7.0,37,0.00,,,0.00,0,weatherlink.com 1.10,2013-01-11 11:18:00,
2013-01-11 04:33:00,38.5,14.0,29.36,SSW,207,4.0,7.0,37,0.00,,,0.00,0,weatherlink.com 1.10,2013-01-11 11:33:00,
2013-01-11 04:49:00,37.0,17.0,29.36,SSW,207,4.0,7.0,44,0.00,,,0.00,0,weatherlink.com 1.10,2013-01-11 11:49:00,
2013-01-11 05:04:00,37.4,15.0,29.34,SSW,203,1.0,5.0,40,0.00,,,0.00,0,weatherlink.com 1.10,2013-01-11 12:04:00,
2013-01-11 05:19:00,37.9,15.0,29.34,SSW,201,3.0,7.0,39,0.00,,,0.00,0,weatherlink.com 1.10,2013-01-11 12:19:00,
2013-01-11 05:34:00,39.1,15.0,29.33,SSW,206,4.0,7.0,38,0.00,,,0.00,0,weatherlink.com 1.10,2013-01-11 12:34:00,
2013-01-11 05:49:00,38.6,15.0,29.32,SSW,212,5.0,8.0,38,0.00,,,0.00,0,weatherlink.com 1.10,2013-01-11 12:49:00,
2013-01-11 06:04:00,38.0,16.0,29.31,SSW,209,3.0,7.0,40,0.00,,,0.00,0,weatherlink.com 1.10,2013-01-11 13:04:00,
2013-01-11 06:19:00,38.4,16.0,29.30,SSW,208,5.0,8.0,40,0.00,,,0.00,0,weatherlink.com 1.10,2013-01-11 13:19:00,
2013-01-11 06:34:00,37.1,16.0,29.30,South,187,0.0,6.0,42,0.00,,,0.00,0,weatherlink.com 1.10,2013-01-11 13:34:00,
2013-01-11 06:49:00,36.8,17.0,29.29,SSW,192,2.0,4.0,44,0.00,,,0.00,0,weatherlink.com 1.10,2013-01-11 13:49:00,
2013-01-11 07:04:00,35.9,17.0,29.28,SSW,212,5.0,6.0,46,0.00,,,0.00,0,weatherlink.com 1.10,2013-01-11 14:04:00,
2013-01-11 07:19:00,35.4,17.0,29.28,SSE,153,2.0,5.0,47,0.00,,,0.00,0,weatherlink.com 1.10,2013-01-11 14:19:00,
2013-01-11 07:34:00,34.7,19.0,29.28,SSW,195,0.0,5.0,52,0.00,,,0.00,25,weatherlink.com 1.10,2013-01-11 14:34:00,
2013-01-11 07:49:00,37.4,20.0,29.27,SSW,201,0.0,3.0,49,0.00,,,0.00,60,weatherlink.com 1.10,2013-01-11 14:49:00,
2013-01-11 08:04:00,39.6,19.0,29.29,SSW,201,0.0,0.0,43,0.00,,,0.00,58,weatherlink.com 1.10,2013-01-11 15:04:00,
2013-01-11 08:19:00,37.7,18.0,29.30,WNW,286,5.0,7.0,45,0.00,,,0.00,18,weatherlink.com 1.10,2013-01-11 15:19:00,
2013-01-11 08:34:00,37.7,19.0,29.31,WNW,297,6.0,9.0,47,0.00,,,0.00,23,weatherlink.com 1.10,2013-01-11 15:34:00,
2013-01-11 08:49:00,37.1,22.0,29.31,West,277,0.0,12.0,55,0.00,,,0.00,33,weatherlink.com 1.10,2013-01-11 15:49:00,
2013-01-11 09:04:00,38.3,19.0,29.30,West,271,2.0,6.0,46,0.00,,,0.00,220,weatherlink.com 1.10,2013-01-11 16:04:00,
2013-01-11 09:19:00,39.2,14.0,29.28,NW,325,6.0,11.0,35,0.00,,,0.00,334,weatherlink.com 1.10,2013-01-11 16:19:00,
2013-01-11 09:34:00,40.4,14.0,29.28,NNW,341,4.0,13.0,34,0.00,,,0.00,362,weatherlink.com 1.10,2013-01-11 16:34:00,
2013-01-11 09:49:00,39.3,20.0,29.30,North,360,1.0,8.0,46,0.00,,,0.00,74,weatherlink.com 1.10,2013-01-11 16:49:00,
2013-01-11 10:04:00,38.3,9.0,29.31,WNW,299,8.0,19.0,30,0.00,,,0.00,497,weatherlink.com 1.10,2013-01-11 17:04:00,
2013-01-11 10:19:00,37.9,10.0,29.32,NW,322,3.0,17.0,32,0.00,,,0.00,200,weatherlink.com 1.10,2013-01-11 17:19:00,
2013-01-11 10:34:00,36.3,8.0,29.32,WNW,292,8.0,24.0,31,0.00,,,0.00,120,weatherlink.com 1.10,2013-01-11 17:34:00,
2013-01-11 10:49:00,34.7,11.0,29.33,NW,306,10.0,16.0,38,0.00,,,0.00,37,weatherlink.com 1.10,2013-01-11 17:49:00,
2013-01-11 11:04:00,34.2,6.0,29.34,WNW,298,3.0,27.0,31,0.00,,,0.00,33,weatherlink.com 1.10,2013-01-11 18:04:00,
2013-01-11 11:20:00,34.2,4.0,29.34,NW,306,8.0,17.0,28,0.00,,,0.00,79,weatherlink.com 1.10,2013-01-11 18:20:00,
2013-01-11 11:35:00,34.9,9.0,29.34,West,281,13.0,15.0,34,0.00,,,0.00,134,weatherlink.com 1.10,2013-01-11 18:35:00,
2013-01-11 11:50:00,34.9,2.0,29.35,West,261,11.0,18.0,25,0.00,,,0.00,123,weatherlink.com 1.10,2013-01-11 18:50:00,
2013-01-11 12:05:00,35.1,2.0,29.35,West,269,1.0,14.0,24,0.00,,,0.00,155,weatherlink.com 1.10,2013-01-11 19:05:00,
2013-01-11 12:20:00,36.0,1.0,29.36,SE,128,4.0,6.0,23,0.00,,,0.00,171,weatherlink.com 1.10,2013-01-11 19:20:00,
2013-01-11 12:35:00,30.6,22.0,29.35,East,79,6.0,17.0,71,0.00,,,0.00,239,weatherlink.com 1.10,2013-01-11 19:35:00,
2013-01-11 12:50:00,32.5,23.0,29.35,ESE,115,12.0,23.0,68,0.00,,,0.00,388,weatherlink.com 1.10,2013-01-11 19:50:00,
2013-01-11 13:05:00,31.6,22.0,29.36,ESE,117,13.0,22.0,69,0.00,,,0.00,206,weatherlink.com 1.10,2013-01-11 20:05:00,
2013-01-11 13:20:00,31.2,23.0,29.38,East,90,23.0,26.0,71,0.00,,,0.00,167,weatherlink.com 1.10,2013-01-11 20:20:00,
2013-01-11 13:35:00,30.4,22.0,29.39,ENE,77,16.0,22.0,72,0.00,,,0.00,176,weatherlink.com 1.10,2013-01-11 20:35:00,
2013-01-11 13:50:00,29.7,22.0,29.41,East,79,8.0,19.0,74,0.00,,,0.00,178,weatherlink.com 1.10,2013-01-11 20:50:00,
2013-01-11 14:05:00,29.4,23.0,29.43,ESE,104,12.0,22.0,76,0.00,,,0.00,146,weatherlink.com 1.10,2013-01-11 21:05:00,
2013-01-11 14:20:00,28.9,22.0,29.45,East,82,16.0,24.0,74,0.00,,,0.00,62,weatherlink.com 1.10,2013-01-11 21:20:00,
2013-01-11 14:35:00,27.8,21.0,29.47,East,88,14.0,19.0,74,0.00,,,0.00,123,weatherlink.com 1.10,2013-01-11 21:35:00,
2013-01-11 14:50:00,27.3,20.0,29.48,ENE,58,17.0,24.0,73,0.00,,,0.00,76,weatherlink.com 1.10,2013-01-11 21:50:00,
2013-01-11 15:05:00,25.0,18.0,29.50,ENE,64,13.0,24.0,76,0.00,,,0.00,62,weatherlink.com 1.10,2013-01-11 22:05:00,
2013-01-11 15:20:00,25.5,18.0,29.52,NE,43,9.0,14.0,74,0.00,,,0.00,19,weatherlink.com 1.10,2013-01-11 22:20:00,
2013-01-11 15:35:00,25.4,19.0,29.54,East,79,7.0,15.0,76,0.00,,,0.00,19,weatherlink.com 1.10,2013-01-11 22:35:00,
2013-01-11 15:50:00,22.9,17.0,29.56,ENE,74,10.0,17.0,78,0.00,,,0.00,49,weatherlink.com 1.10,2013-01-11 22:50:00,
2013-01-11 16:05:00,23.5,19.0,29.58,ENE,76,5.0,8.0,81,0.00,,,0.00,30,weatherlink.com 1.10,2013-01-11 23:05:00,
2013-01-11 16:20:00,21.9,17.0,29.59,East,80,11.0,16.0,80,0.00,,,0.00,25,weatherlink.com 1.10,2013-01-11 23:20:00,
2013-01-11 16:35:00,21.1,15.0,29.61,SE,134,4.0,17.0,78,0.00,,,0.00,11,weatherlink.com 1.10,2013-01-11 23:35:00,
2013-01-11 16:50:00,19.7,15.0,29.62,East,92,7.0,13.0,83,0.00,,,0.00,5,weatherlink.com 1.10,2013-01-11 23:50:00,
2013-01-11 17:05:00,19.9,14.0,29.64,ESE,108,0.0,9.0,79,0.00,,,0.00,0,weatherlink.com 1.10,2013-01-12 00:05:00,
2013-01-11 17:20:00,18.2,14.0,29.66,East,96,2.0,9.0,84,0.00,,,0.00,0,weatherlink.com 1.10,2013-01-12 00:20:00,
2013-01-11 17:35:00,18.0,14.0,29.67,SE,128,4.0,9.0,84,0.00,,,0.00,0,weatherlink.com 1.10,2013-01-12 00:35:00,
2013-01-11 17:50:00,17.3,13.0,29.69,ESE,111,2.0,8.0,83,0.00,,,0.00,0,weatherlink.com 1.10,2013-01-12 00:50:00,
2013-01-11 18:06:00,17.3,13.0,29.70,ESE,123,0.0,4.0,83,0.00,,,0.00,0,weatherlink.com 1.10,2013-01-12 01:06:00,
2013-01-11 18:21:00,16.8,13.0,29.71,SE,131,0.0,4.0,84,0.00,,,0.00,0,weatherlink.com 1.10,2013-01-12 01:21:00,
2013-01-11 18:36:00,16.7,13.0,29.72,SE,125,0.0,4.0,84,0.00,,,0.00,0,weatherlink.com 1.10,2013-01-12 01:36:00,
2013-01-11 18:50:00,16.4,12.0,29.73,SE,132,0.0,2.0,84,0.00,,,0.00,0,weatherlink.com 1.10,2013-01-12 01:50:00,
2013-01-11 19:06:00,16.7,13.0,29.74,SE,133,0.0,0.0,86,0.00,,,0.00,0,weatherlink.com 1.10,2013-01-12 02:06:00,
2013-01-11 19:21:00,16.0,12.0,29.74,SE,136,0.0,0.0,85,0.00,,,0.00,0,weatherlink.com 1.10,2013-01-12 02:21:00,
2013-01-11 19:36:00,16.7,14.0,29.75,SE,144,0.0,21.0,87,0.00,,,0.00,0,weatherlink.com 1.10,2013-01-12 02:36:00,
2013-01-11 19:51:00,16.1,13.0,29.76,East,99,0.0,7.0,86,0.00,,,0.00,0,weatherlink.com 1.10,2013-01-12 02:51:00,
2013-01-11 20:06:00,15.5,12.0,29.77,SE,142,0.0,3.0,87,0.00,,,0.00,0,weatherlink.com 1.10,2013-01-12 03:06:00,
2013-01-11 20:21:00,15.7,13.0,29.77,ESE,103,1.0,5.0,87,0.00,,,0.00,0,weatherlink.com 1.10,2013-01-12 03:21:00,
2013-01-11 20:37:00,16.5,13.0,29.77,East,100,5.0,8.0,87,0.00,,,0.00,0,weatherlink.com 1.10,2013-01-12 03:37:00,
2013-01-11 20:51:00,15.8,12.0,29.78,ESE,117,1.0,5.0,85,0.00,,,0.00,0,weatherlink.com 1.10,2013-01-12 03:51:00,
2013-01-11 21:06:00,15.2,11.0,29.78,NNE,26,0.0,3.0,84,0.00,,,0.00,0,weatherlink.com 1.10,2013-01-12 04:06:00,
2013-01-11 21:21:00,15.7,12.0,29.78,East,92,5.0,9.0,85,0.00,,,0.00,0,weatherlink.com 1.10,2013-01-12 04:21:00,
2013-01-11 21:36:00,14.7,11.0,29.79,SE,124,0.0,5.0,86,0.00,,,0.00,0,weatherlink.com 1.10,2013-01-12 04:36:00,
2013-01-11 21:51:00,14.7,12.0,29.79,ENE,78,3.0,5.0,87,0.00,,,0.00,0,weatherlink.com 1.10,2013-01-12 04:51:00,
2013-01-11 22:06:00,15.5,12.0,29.80,East,96,2.0,5.0,84,0.00,,,0.00,0,weatherlink.com 1.10,2013-01-12 05:06:00,
2013-01-11 22:21:00,14.4,10.0,29.81,SSE,165,0.0,3.0,84,0.00,,,0.00,0,weatherlink.com 1.10,2013-01-12 05:21:00,
2013-01-11 22:36:00,16.5,14.0,29.81,SSE,159,0.0,0.0,90,0.00,,,0.00,0,weatherlink.com 1.10,2013-01-12 05:36:00,
2013-01-11 22:51:00,13.9,9.0,29.82,NNW,338,0.0,0.0,80,0.00,,,0.00,0,weatherlink.com 1.10,2013-01-12 05:51:00,
2013-01-11 23:06:00,14.3,9.0,29.82,WNW,302,1.0,3.0,80,0.00,,,0.00,0,weatherlink.com 1.10,2013-01-12 06:06:00,
2013-01-11 23:21:00,15.1,10.0,29.83,WNW,300,0.0,2.0,80,0.00,,,0.00,0,weatherlink.com 1.10,2013-01-12 06:21:00,
2013-01-11 23:36:00,15.8,8.0,29.84,WNW,300,0.0,0.0,72,0.00,,,0.00,0,weatherlink.com 1.10,2013-01-12 06:36:00,
2013-01-11 23:51:00,15.2,5.0,29.84,NW,323,1.0,4.0,64,0.00,,,0.00,0,weatherlink.com 1.10,2013-01-12 06:51:00,